This is the latest recevied weather packets stored in our database for station/object WX7FGZ-6. If no packets are shown the sender has not sent any weather packets the latest 10 day(s).
| Time | Temp. | Humidity | Pressure | Rain* | Wind** | Luminosity | Snow |
|---|---|---|---|---|---|---|---|
| 1777836002 | 7.22° C | 56% | 1022.9 hPa | 0 mm | - | - | - |
| 1777835702 | 7.22° C | 56% | 1023 hPa | 0 mm | - | - | - |
| 1777835402 | 7.78° C | 52% | 1023.1 hPa | 0 mm | - | - | - |
| 1777835102 | 8.33° C | 49% | 1023 hPa | 0 mm | - | - | - |
| 1777834835 | 8.33° C | 49% | 1023.2 hPa | 0 mm | - | - | - |
| 1777834802 | 8.33° C | 49% | 1023.2 hPa | 0 mm | - | - | - |
| 1777834129 | 7.22° C | 53% | 1023.4 hPa | 0 mm | - | - | - |
| 1777833829 | 7.22° C | 54% | 1023.5 hPa | 0 mm | - | - | - |
| 1777833529 | 6.67° C | 52% | 1023.7 hPa | 0 mm | - | - | - |
| 1777833229 | 7.22° C | 51% | 1023.7 hPa | 0 mm | - | - | - |
| 1777832929 | 6.67° C | 52% | 1023.4 hPa | 0 mm | - | - | - |
| 1777832629 | 6.11° C | 55% | 1023.8 hPa | 0 mm | - | - | - |
| 1777832328 | 6.11° C | 53% | 1023.9 hPa | 0 mm | - | - | - |
| 1777832028 | 6.67° C | 52% | 1024 hPa | 0 mm | - | - | - |
| 1777831728 | 7.22° C | 52% | 1024.2 hPa | 0 mm | - | - | - |
| 1777831428 | 7.78° C | 49% | 1024.2 hPa | 0 mm | - | - | - |
| 1777831128 | 7.22° C | 52% | 1024.1 hPa | 0 mm | - | - | - |
| 1777830828 | 6.11° C | 52% | 1024.2 hPa | 0 mm | - | - | - |
| 1777830529 | 5.56° C | 52% | 1024.1 hPa | 0 mm | - | - | - |
| 1777829929 | 6.67° C | 52% | 1024.1 hPa | 0 mm | - | - | - |
| 1777829629 | 6.11° C | 54% | 1024.2 hPa | 0 mm | - | - | - |
| 1777829328 | 5.56° C | 55% | 1024.3 hPa | 0 mm | - | - | - |
| 1777829028 | 6.11° C | 53% | 1024.2 hPa | 0 mm | - | - | - |
| 1777828728 | 5.56° C | 55% | 1024.2 hPa | 0 mm | - | - | - |
| 1777828428 | 5.56° C | 52% | 1023.5 hPa | 0 mm | - | - | - |
* Rain latest hour (hover to see other rain measurements)
** Current wind speed in m/s (hover to see current wind gust speed)